createdAt,value
2019-05-17T00:01:57.880Z,9.48
2019-05-17T00:04:27.225Z,9.88
2019-05-17T00:06:57.114Z,9.50
2019-05-17T00:09:26.784Z,10.43
2019-05-17T00:11:56.854Z,9.58
2019-05-17T00:14:27.138Z,10.45
2019-05-17T00:16:57.269Z,9.53
2019-05-17T00:19:26.614Z,11.10
2019-05-17T00:21:56.668Z,9.20
2019-05-17T00:24:26.567Z,9.70
2019-05-17T00:26:58.439Z,10.03
2019-05-17T00:29:26.692Z,9.38
2019-05-17T00:31:56.835Z,9.35
2019-05-17T00:34:27.042Z,9.88
2019-05-17T00:36:57.448Z,9.28
2019-05-17T00:39:27.173Z,8.90
2019-05-17T00:41:57.359Z,9.33
2019-05-17T00:44:27.218Z,9.53
2019-05-17T00:46:58.850Z,9.58
2019-05-17T00:49:27.336Z,9.25
2019-05-17T00:51:56.799Z,8.78
2019-05-17T00:54:26.917Z,10.32
2019-05-17T00:56:56.789Z,10.88
2019-05-17T00:59:26.443Z,10.15
2019-05-17T01:01:56.246Z,10.45
2019-05-17T01:04:27.488Z,9.70
2019-05-17T01:06:56.700Z,8.93
2019-05-17T01:09:27.346Z,9.90
2019-05-17T01:11:56.996Z,9.98
2019-05-17T01:14:26.630Z,9.40
2019-05-17T01:16:56.480Z,9.53
2019-05-17T01:19:36.557Z,9.50
2019-05-17T01:22:07.583Z,9.63
2019-05-17T01:24:36.992Z,8.43
2019-05-17T01:27:06.674Z,9.65
2019-05-17T01:29:36.447Z,9.15
2019-05-17T01:32:06.740Z,9.33
2019-05-17T01:34:37.578Z,9.38
2019-05-17T01:37:07.408Z,9.53
2019-05-17T01:39:37.521Z,9.50
2019-05-17T01:42:07.297Z,9.83
2019-05-17T01:44:36.843Z,9.83
2019-05-17T01:47:07.394Z,8.40
2019-05-17T01:49:36.658Z,8.50
2019-05-17T01:52:07.533Z,8.50
2019-05-17T01:54:36.838Z,9.33
2019-05-17T01:57:07.305Z,10.00
2019-05-17T01:59:37.402Z,9.23
2019-05-17T02:02:10.336Z,9.38
2019-05-17T02:04:39.597Z,9.75
2019-05-17T02:07:08.753Z,9.35
2019-05-17T02:09:41.634Z,9.93
2019-05-17T02:12:08.817Z,10.08
2019-05-17T02:14:38.406Z,8.48
2019-05-17T02:17:07.957Z,9.15
2019-05-17T02:19:38.230Z,9.73
2019-05-17T02:22:07.580Z,9.95
2019-05-17T02:24:37.169Z,10.13
2019-05-17T02:27:06.501Z,9.40
2019-05-17T02:29:35.738Z,10.40
2019-05-17T02:32:04.979Z,9.88
2019-05-17T02:34:34.301Z,9.78
2019-05-17T02:37:03.588Z,10.03
2019-05-17T02:39:33.180Z,9.85
2019-05-17T02:42:02.938Z,10.98
2019-05-17T02:44:33.577Z,9.40
2019-05-17T02:47:03.336Z,10.03
2019-05-17T02:49:33.354Z,10.82
2019-05-17T02:52:03.468Z,10.48
2019-05-17T02:54:33.112Z,10.05
2019-05-17T02:57:03.198Z,11.22
2019-05-17T02:59:33.367Z,10.58
2019-05-17T03:02:03.618Z,10.40
2019-05-17T03:04:32.974Z,10.25
2019-05-17T03:07:03.850Z,9.85
2019-05-17T03:09:33.725Z,11.12
2019-05-17T03:12:03.697Z,10.72
2019-05-17T03:14:33.396Z,10.40
2019-05-17T03:17:03.433Z,10.25
2019-05-17T03:19:33.119Z,10.15
2019-05-17T03:22:07.225Z,9.30
2019-05-17T03:24:33.609Z,10.32
2019-05-17T03:27:03.140Z,10.23
2019-05-17T03:29:33.742Z,10.55
2019-05-17T03:32:08.844Z,10.25
2019-05-17T03:34:37.515Z,10.03
2019-05-17T03:37:07.723Z,9.78
2019-05-17T03:39:37.227Z,9.85
2019-05-17T03:42:06.487Z,10.15
2019-05-17T03:44:35.948Z,10.45
2019-05-17T03:47:05.481Z,11.00
2019-05-17T03:49:38.503Z,10.65
2019-05-17T03:52:05.819Z,10.25
2019-05-17T03:54:35.062Z,11.03
2019-05-17T03:57:04.188Z,9.85
2019-05-17T03:59:34.519Z,11.03
2019-05-17T04:02:04.264Z,10.50
2019-05-17T04:04:33.458Z,9.53
2019-05-17T04:07:03.762Z,10.63
2019-05-17T04:12:03.044Z,10.63
2019-05-17T04:14:33.603Z,9.93
2019-05-17T04:17:03.289Z,9.58
2019-05-17T04:19:33.729Z,10.70
2019-05-17T04:22:03.847Z,10.08
2019-05-17T04:24:33.251Z,11.18
2019-05-17T04:27:03.673Z,10.60
2019-05-17T04:29:33.426Z,11.12
2019-05-17T04:32:03.932Z,11.05
2019-05-17T04:34:33.925Z,11.43
2019-05-17T04:37:04.258Z,10.13
2019-05-17T04:39:33.868Z,10.78
2019-05-17T04:42:04.055Z,11.75
2019-05-17T04:44:33.368Z,10.98
2019-05-17T04:47:03.386Z,11.85
2019-05-17T04:49:33.365Z,11.40
2019-05-17T04:52:03.709Z,11.35
2019-05-17T04:54:33.738Z,11.48
2019-05-17T04:57:03.046Z,10.72
2019-05-17T04:59:33.785Z,10.10
2019-05-17T05:02:03.479Z,11.20
2019-05-17T05:04:36.231Z,11.33
2019-05-17T05:07:04.172Z,11.68
2019-05-17T05:09:33.646Z,11.10
2019-05-17T05:12:06.208Z,10.45
2019-05-17T05:14:37.116Z,10.40
2019-05-17T05:17:06.987Z,11.80
2019-05-17T05:19:42.371Z,12.00
2019-05-17T05:22:13.557Z,11.28
2019-05-17T05:24:42.555Z,11.10
2019-05-17T05:27:11.749Z,9.53
2019-05-17T05:29:41.603Z,12.58
2019-05-17T05:32:11.845Z,10.48
2019-05-17T05:34:42.984Z,11.63
2019-05-17T05:37:12.626Z,10.50
2019-05-17T05:39:41.849Z,10.18
2019-05-17T05:42:13.876Z,9.98
2019-05-17T05:44:42.281Z,10.70
2019-05-17T05:47:11.882Z,10.78
2019-05-17T05:49:42.609Z,12.05
2019-05-17T05:52:42.211Z,11.53
2019-05-17T05:55:12.223Z,10.53
2019-05-17T05:57:42.337Z,10.28
2019-05-17T06:00:13.755Z,10.38
2019-05-17T06:02:42.931Z,11.88
2019-05-17T06:05:17.134Z,11.05
2019-05-17T06:07:44.277Z,11.28
2019-05-17T06:10:13.984Z,10.93
2019-05-17T06:12:43.795Z,11.53
2019-05-17T06:15:13.802Z,11.83
2019-05-17T06:17:43.268Z,11.00
2019-05-17T06:20:12.903Z,10.55
2019-05-17T06:22:42.720Z,10.78
2019-05-17T06:25:15.400Z,11.38
2019-05-17T06:27:43.698Z,11.00
2019-05-17T06:30:13.291Z,11.03
2019-05-17T06:32:43.492Z,10.93
2019-05-17T06:35:13.254Z,10.08
2019-05-17T06:37:42.779Z,9.28
2019-05-17T06:40:13.433Z,10.20
2019-05-17T06:42:45.424Z,11.43
2019-05-17T06:45:14.358Z,10.60
2019-05-17T06:47:43.604Z,10.30
2019-05-17T06:50:14.499Z,11.55
2019-05-17T06:52:44.140Z,10.85
2019-05-17T06:55:13.477Z,10.03
2019-05-17T06:57:43.224Z,9.40
2019-05-17T07:00:19.522Z,9.70
2019-05-17T07:02:43.937Z,11.38
2019-05-17T07:05:16.676Z,11.50
2019-05-17T07:07:46.193Z,10.10
2019-05-17T07:10:15.413Z,10.93
2019-05-17T07:12:54.995Z,10.93
2019-05-17T07:15:15.826Z,11.12
2019-05-17T07:17:45.223Z,10.50
2019-05-17T07:20:14.448Z,9.73
2019-05-17T07:22:43.611Z,10.45
2019-05-17T07:25:12.833Z,8.70
2019-05-17T07:27:45.745Z,10.90
2019-05-17T07:30:13.807Z,8.98
2019-05-17T07:32:43.479Z,10.10
2019-05-17T07:35:13.341Z,10.00
2019-05-17T07:37:42.515Z,10.32
2019-05-17T07:40:12.153Z,10.20
2019-05-17T07:42:41.292Z,10.58
2019-05-17T07:45:11.006Z,9.98
2019-05-17T07:47:40.618Z,10.35
2019-05-17T07:50:11.408Z,10.30
2019-05-17T07:52:41.134Z,10.23
2019-05-17T07:55:11.182Z,10.13
2019-05-17T07:57:41.198Z,10.23
2019-05-17T08:00:12.261Z,9.88
2019-05-17T08:02:41.541Z,9.75
2019-05-17T08:05:11.637Z,10.10
2019-05-17T08:07:41.069Z,10.95
2019-05-17T08:10:11.150Z,10.63
2019-05-17T08:12:41.205Z,10.43
2019-05-17T08:15:11.355Z,10.05
2019-05-17T08:17:40.722Z,10.10
2019-05-17T08:20:10.533Z,10.50
2019-05-17T08:22:40.289Z,10.43
2019-05-17T08:25:10.627Z,10.15
2019-05-17T08:27:40.718Z,10.90
2019-05-17T08:30:11.023Z,10.95
2019-05-17T08:32:40.816Z,11.12
2019-05-17T08:35:11.540Z,9.80
2019-05-17T08:37:42.411Z,9.70
2019-05-17T08:40:15.043Z,10.15
2019-05-17T08:42:42.961Z,10.95
2019-05-17T08:45:12.242Z,10.58
2019-05-17T08:47:42.074Z,11.50
2019-05-17T08:50:12.418Z,11.30
2019-05-17T08:52:41.686Z,9.53
2019-05-17T08:55:10.961Z,10.80
2019-05-17T08:57:40.387Z,11.53
2019-05-17T09:00:10.908Z,12.18
2019-05-17T09:02:41.193Z,12.80
2019-05-17T09:05:10.539Z,11.88
2019-05-17T09:07:40.400Z,11.80
2019-05-17T09:10:10.364Z,11.60
2019-05-17T09:12:40.942Z,12.60
2019-05-17T09:15:10.643Z,11.63
2019-05-17T09:17:40.430Z,11.65
2019-05-17T09:20:10.722Z,12.73
2019-05-17T09:22:40.284Z,12.23
2019-05-17T09:25:15.009Z,11.97
2019-05-17T09:27:40.843Z,11.80
2019-05-17T09:30:11.082Z,12.50
2019-05-17T09:32:40.654Z,12.53
2019-05-17T09:35:10.613Z,13.18
2019-05-17T09:37:41.419Z,13.60
2019-05-17T09:40:11.293Z,13.00
2019-05-17T09:42:41.326Z,12.15
2019-05-17T09:45:11.374Z,12.60
2019-05-17T09:47:40.560Z,14.00
2019-05-17T09:50:10.707Z,13.60
2019-05-17T09:52:40.806Z,13.55
2019-05-17T09:55:10.460Z,13.38
2019-05-17T09:57:40.801Z,13.15
2019-05-17T10:00:11.428Z,13.83
2019-05-17T10:02:40.772Z,14.68
2019-05-17T10:05:10.547Z,13.30
2019-05-17T10:07:40.599Z,13.48
2019-05-17T10:10:10.712Z,12.90
2019-05-17T10:12:40.613Z,13.70
2019-05-17T10:15:10.280Z,13.28
2019-05-17T10:17:39.739Z,13.68
2019-05-17T10:20:10.865Z,13.10
2019-05-17T10:22:40.755Z,13.00
2019-05-17T10:25:10.030Z,12.25
2019-05-17T10:27:40.715Z,12.70
2019-05-17T10:30:10.752Z,12.58
2019-05-17T10:32:41.091Z,12.53
2019-05-17T10:35:10.717Z,12.58
2019-05-17T10:37:40.932Z,11.68
2019-05-17T10:40:11.305Z,12.18
2019-05-17T10:42:40.913Z,14.07
2019-05-17T10:45:11.240Z,12.88
2019-05-17T10:47:41.545Z,12.78
2019-05-17T10:50:11.177Z,12.13
2019-05-17T10:52:41.331Z,12.80
2019-05-17T10:55:10.991Z,12.60
2019-05-17T10:57:40.221Z,12.30
2019-05-17T11:00:10.879Z,11.48
2019-05-17T11:02:40.070Z,11.08
2019-05-17T11:05:11.869Z,11.28
2019-05-17T11:07:41.015Z,11.38
2019-05-17T11:10:12.038Z,9.55
2019-05-17T11:12:41.530Z,10.25
2019-05-17T11:15:12.109Z,9.93
2019-05-17T11:17:41.594Z,10.88
2019-05-17T11:20:11.525Z,10.18
2019-05-17T11:22:40.684Z,9.15
2019-05-17T11:25:10.349Z,8.88
2019-05-17T11:27:39.520Z,7.90
2019-05-17T11:30:09.162Z,8.10
2019-05-17T11:32:38.710Z,7.08
2019-05-17T11:35:08.405Z,8.20
2019-05-17T11:37:37.640Z,7.50
2019-05-17T11:40:08.216Z,7.20
2019-05-17T11:42:38.024Z,6.65
2019-05-17T11:45:26.316Z,6.92
2019-05-17T11:47:41.822Z,6.35
2019-05-17T11:50:12.404Z,6.17
2019-05-17T11:52:41.835Z,7.15
2019-05-17T11:55:12.675Z,5.70
2019-05-17T11:57:42.184Z,4.92
2019-05-17T12:00:12.702Z,5.42
2019-05-17T12:02:41.981Z,5.80
2019-05-17T12:05:11.318Z,4.53
2019-05-17T12:07:40.964Z,4.15
2019-05-17T12:10:10.750Z,4.62
2019-05-17T12:12:39.924Z,4.72
2019-05-17T12:15:09.613Z,4.78
2019-05-17T12:17:38.744Z,5.17
2019-05-17T12:20:09.826Z,4.30
2019-05-17T12:22:38.997Z,4.65
2019-05-17T12:25:08.398Z,4.45
2019-05-17T12:27:38.051Z,4.60
2019-05-17T12:30:08.022Z,4.53
2019-05-17T12:32:37.545Z,5.22
2019-05-17T12:35:07.904Z,5.00
2019-05-17T12:37:37.161Z,5.35
2019-05-17T12:40:06.593Z,5.50
2019-05-17T12:42:38.689Z,4.83
2019-05-17T12:45:08.316Z,4.83
2019-05-17T12:47:37.489Z,4.28
2019-05-17T12:50:07.016Z,4.30
2019-05-17T12:52:36.149Z,4.83
2019-05-17T12:55:05.559Z,4.90
2019-05-17T12:57:35.046Z,4.85
2019-05-17T13:00:04.604Z,5.15
2019-05-17T13:02:34.030Z,4.62
2019-05-17T13:05:03.208Z,4.30
2019-05-17T13:07:32.398Z,4.50
2019-05-17T13:10:01.657Z,4.42
2019-05-17T13:12:30.942Z,4.90
2019-05-17T13:15:00.160Z,5.03
2019-05-17T13:17:29.356Z,5.17
2019-05-17T13:19:58.745Z,5.35
2019-05-17T13:22:28.423Z,4.85
2019-05-17T13:24:57.531Z,5.08
2019-05-17T13:27:26.798Z,5.67
2019-05-17T13:29:56.331Z,5.20
2019-05-17T13:32:25.496Z,5.30
2019-05-17T13:34:54.996Z,5.78
2019-05-17T13:37:24.783Z,5.65
2019-05-17T13:39:54.004Z,5.62
2019-05-17T13:42:23.210Z,5.97
2019-05-17T13:44:52.655Z,5.80
2019-05-17T13:47:21.833Z,5.50
2019-05-17T13:49:51.337Z,6.03
2019-05-17T13:52:20.779Z,5.95
2019-05-17T13:54:50.024Z,5.97
2019-05-17T13:57:19.288Z,6.22
2019-05-17T13:59:48.436Z,6.35
2019-05-17T14:02:17.623Z,6.20
2019-05-17T14:04:46.807Z,5.87
2019-05-17T14:07:16.048Z,5.95
2019-05-17T14:09:45.248Z,5.40
2019-05-17T14:12:14.390Z,5.53
2019-05-17T14:14:43.543Z,5.42
2019-05-17T14:17:12.729Z,5.40
2019-05-17T14:19:41.995Z,5.78
2019-05-17T14:22:11.278Z,7.55
2019-05-17T14:24:40.748Z,5.45
2019-05-17T14:27:09.958Z,5.87
2019-05-17T14:29:39.258Z,6.05
2019-05-17T14:32:09.093Z,5.65
2019-05-17T14:34:38.809Z,5.30
2019-05-17T14:37:08.191Z,5.50
2019-05-17T14:39:37.462Z,5.20
2019-05-17T14:42:06.591Z,4.47
2019-05-17T14:44:36.040Z,5.33
2019-05-17T14:47:05.175Z,5.17
2019-05-17T14:49:34.330Z,6.10
2019-05-17T14:52:03.523Z,4.90
2019-05-17T14:54:32.938Z,4.85
2019-05-17T14:57:02.063Z,5.58
2019-05-17T14:59:31.185Z,5.12
2019-05-17T15:02:00.423Z,5.22
2019-05-17T15:04:29.959Z,4.65
2019-05-17T15:06:59.859Z,5.35
2019-05-17T15:09:30.036Z,4.37
2019-05-17T15:11:59.628Z,4.55
2019-05-17T15:14:29.660Z,5.22
2019-05-17T15:16:59.409Z,4.45
2019-05-17T15:19:28.734Z,4.80
2019-05-17T15:21:58.305Z,4.12
2019-05-17T15:24:27.947Z,4.37
2019-05-17T15:27:05.517Z,4.90
2019-05-17T15:29:27.965Z,4.30
2019-05-17T15:31:57.486Z,4.95
2019-05-17T15:34:26.950Z,5.08
2019-05-17T15:36:56.181Z,4.37
2019-05-17T15:39:25.313Z,4.37
2019-05-17T15:41:54.461Z,4.22
2019-05-17T15:44:26.841Z,4.40
2019-05-17T15:46:54.454Z,4.65
2019-05-17T15:49:23.573Z,4.20
2019-05-17T15:51:53.181Z,3.52
2019-05-17T15:54:22.378Z,4.25
2019-05-17T15:56:51.610Z,4.12
2019-05-17T15:59:21.396Z,4.62
2019-05-17T16:01:50.721Z,4.60
2019-05-17T16:04:19.894Z,4.33
2019-05-17T16:06:49.044Z,4.20
2019-05-17T16:09:18.251Z,4.20
2019-05-17T16:11:47.897Z,3.77
2019-05-17T16:14:17.445Z,4.20
2019-05-17T16:16:46.984Z,4.25
2019-05-17T16:19:17.116Z,3.90
2019-05-17T16:21:46.621Z,3.95
2019-05-17T16:24:15.826Z,4.12
2019-05-17T16:26:45.458Z,3.72
2019-05-17T16:29:14.690Z,4.95
2019-05-17T16:31:44.449Z,4.17
2019-05-17T16:34:13.702Z,4.03
2019-05-17T16:36:42.856Z,3.62
2019-05-17T16:39:12.425Z,3.75
2019-05-17T16:41:41.601Z,3.95
2019-05-17T16:44:10.895Z,3.42
2019-05-17T16:46:40.484Z,3.83
2019-05-17T16:49:09.660Z,3.77
2019-05-17T16:51:38.877Z,4.00
2019-05-17T16:54:08.386Z,3.62
2019-05-17T16:56:37.627Z,3.47
2019-05-17T16:59:06.910Z,3.45
2019-05-17T17:01:36.992Z,3.58
2019-05-17T17:04:06.516Z,3.60
2019-05-17T17:06:35.712Z,3.95
2019-05-17T17:09:06.191Z,3.92
2019-05-17T17:11:35.663Z,3.80
2019-05-17T17:14:05.262Z,3.45
2019-05-17T17:16:34.444Z,3.92
2019-05-17T17:19:03.955Z,3.60
2019-05-17T17:21:33.115Z,3.00
2019-05-17T17:24:02.265Z,3.47
2019-05-17T17:26:31.375Z,3.70
2019-05-17T17:29:00.769Z,3.75
2019-05-17T17:31:30.121Z,3.55
2019-05-17T17:33:59.377Z,3.10
2019-05-17T17:36:28.766Z,2.92
2019-05-17T17:38:58.046Z,3.40
2019-05-17T17:41:27.180Z,3.55
2019-05-17T17:43:59.012Z,3.50
2019-05-17T17:46:27.318Z,4.12
2019-05-17T17:48:56.726Z,4.00
2019-05-17T17:51:25.921Z,2.98
2019-05-17T17:53:55.124Z,3.87
2019-05-17T17:56:24.329Z,3.72
2019-05-17T17:58:53.583Z,3.47
2019-05-17T18:01:22.839Z,3.33
2019-05-17T18:03:52.058Z,3.50
2019-05-17T18:06:21.326Z,3.67
2019-05-17T18:08:50.462Z,3.70
2019-05-17T18:11:19.851Z,3.42
2019-05-17T18:13:49.377Z,3.33
2019-05-17T18:16:18.575Z,3.80
2019-05-17T18:18:47.741Z,3.20
2019-05-17T18:21:16.912Z,3.75
2019-05-17T18:23:46.376Z,3.20
2019-05-17T18:26:15.543Z,3.10
2019-05-17T18:28:44.673Z,4.28
2019-05-17T18:31:13.846Z,4.12
2019-05-17T18:33:42.985Z,4.30
2019-05-17T18:36:12.086Z,4.10
2019-05-17T18:38:41.661Z,4.78
2019-05-17T18:41:10.810Z,4.95
2019-05-17T18:43:39.985Z,4.03
2019-05-17T18:46:09.500Z,4.65
2019-05-17T18:48:38.768Z,4.20
2019-05-17T18:51:08.180Z,4.75
2019-05-17T18:53:37.308Z,5.05
2019-05-17T18:56:06.538Z,3.92
2019-05-17T18:58:39.083Z,4.53
2019-05-17T19:01:06.654Z,4.95
2019-05-17T19:03:36.010Z,4.25
2019-05-17T19:06:05.721Z,4.95
2019-05-17T19:08:35.420Z,4.85
2019-05-17T19:11:04.688Z,4.00
2019-05-17T19:13:33.839Z,4.78
2019-05-17T19:16:03.845Z,4.75
2019-05-17T19:18:33.407Z,4.72
2019-05-17T19:21:02.900Z,4.60
2019-05-17T19:23:32.304Z,4.65
2019-05-17T19:26:01.563Z,5.08
2019-05-17T19:28:30.815Z,4.33
2019-05-17T19:31:00.190Z,4.45
2019-05-17T19:33:29.419Z,4.47
2019-05-17T19:35:58.939Z,4.28
2019-05-17T19:38:32.449Z,4.17
2019-05-17T19:41:01.655Z,4.22
2019-05-17T19:43:31.316Z,4.22
2019-05-17T19:46:00.596Z,4.33
2019-05-17T19:48:29.857Z,5.42
2019-05-17T19:50:59.474Z,4.60
2019-05-17T19:53:28.766Z,4.67
2019-05-17T19:55:58.881Z,3.98
2019-05-17T19:58:28.621Z,4.47
2019-05-17T20:00:58.908Z,4.22
2019-05-17T20:03:28.167Z,4.20
2019-05-17T20:05:57.388Z,3.85
2019-05-17T20:08:26.663Z,4.35
2019-05-17T20:10:56.324Z,5.00
2019-05-17T20:13:25.539Z,4.37
2019-05-17T20:15:54.928Z,4.05
2019-05-17T20:18:24.141Z,4.12
2019-05-17T20:20:53.431Z,3.98
2019-05-17T20:23:22.684Z,4.33
2019-05-17T20:25:51.814Z,4.72
2019-05-17T20:28:21.070Z,4.45
2019-05-17T20:30:50.654Z,4.62
2019-05-17T20:33:19.879Z,5.10
2019-05-17T20:35:49.132Z,5.42
2019-05-17T20:38:19.666Z,4.72
2019-05-17T20:40:49.716Z,4.03
2019-05-17T20:43:18.997Z,5.50
2019-05-17T20:45:48.725Z,4.55
2019-05-17T20:48:18.234Z,5.95
2019-05-17T20:50:47.522Z,5.28
2019-05-17T20:53:19.310Z,4.90
2019-05-17T20:55:48.340Z,5.30
2019-05-17T20:58:17.609Z,5.30
2019-05-17T21:00:47.084Z,5.50
2019-05-17T21:03:16.369Z,4.85
2019-05-17T21:05:45.879Z,6.12
2019-05-17T21:08:15.160Z,5.55
2019-05-17T21:10:44.663Z,5.95
2019-05-17T21:13:14.480Z,5.25
2019-05-17T21:15:47.879Z,5.15
2019-05-17T21:18:15.858Z,5.80
2019-05-17T21:20:45.049Z,5.30
2019-05-17T21:23:14.275Z,5.35
2019-05-17T21:25:43.578Z,5.20
2019-05-17T21:28:12.733Z,5.47
2019-05-17T21:30:42.137Z,6.70
2019-05-17T21:33:11.237Z,5.58
2019-05-17T21:35:40.478Z,6.08
2019-05-17T21:38:09.729Z,6.37
2019-05-17T21:40:43.008Z,5.93
2019-05-17T21:46:03.686Z,5.33
2019-05-17T21:48:31.268Z,5.72
2019-05-17T21:51:04.358Z,5.08
2019-05-17T21:53:35.283Z,4.80
2019-05-17T21:56:11.661Z,5.95
2019-05-17T21:58:46.952Z,5.40
2019-05-17T22:01:26.418Z,5.30
2019-05-17T22:03:56.948Z,5.70
2019-05-17T22:06:27.908Z,5.60
2019-05-17T22:09:03.426Z,5.95
2019-05-17T22:11:40.437Z,5.95
2019-05-17T22:14:11.288Z,5.35
2019-05-17T22:16:48.957Z,5.55
2019-05-17T22:19:21.417Z,5.75
2019-05-17T22:22:03.584Z,5.30
2019-05-17T22:24:31.644Z,5.53
2019-05-17T22:27:09.095Z,5.55
2019-05-17T22:29:41.600Z,4.47
2019-05-17T22:32:13.087Z,5.10
2019-05-17T22:34:44.068Z,5.45
2019-05-17T22:37:18.993Z,5.70
2019-05-17T22:39:56.231Z,5.30
2019-05-17T22:42:28.824Z,5.33
2019-05-17T22:44:59.036Z,5.87
2019-05-17T22:47:33.761Z,5.75
2019-05-17T22:50:06.715Z,5.80
2019-05-17T22:52:39.566Z,6.45
2019-05-17T22:55:13.139Z,5.95
2019-05-17T22:57:43.303Z,5.90
2019-05-17T23:00:15.975Z,5.25
2019-05-17T23:02:52.372Z,5.37
2019-05-17T23:05:28.103Z,6.03
2019-05-17T23:08:02.771Z,5.47
2019-05-17T23:10:39.168Z,6.15
2019-05-17T23:13:14.649Z,5.95
2019-05-17T23:16:04.350Z,6.15
2019-05-17T23:18:44.186Z,6.03
2019-05-17T23:21:13.434Z,6.28
2019-05-17T23:23:42.654Z,6.12
2019-05-17T23:26:12.166Z,6.42
2019-05-17T23:28:41.387Z,7.12
2019-05-17T23:31:10.730Z,6.67
2019-05-17T23:33:39.965Z,6.35
2019-05-17T23:36:09.189Z,7.58
2019-05-17T23:38:38.998Z,6.25
2019-05-17T23:41:08.429Z,6.12
2019-05-17T23:43:37.658Z,6.22
2019-05-17T23:46:06.825Z,5.65
2019-05-17T23:48:35.983Z,5.45
2019-05-17T23:51:05.229Z,5.95
2019-05-17T23:53:34.411Z,6.15
2019-05-17T23:56:03.595Z,5.70
2019-05-17T23:58:32.801Z,5.97
